createdAt,value
2019-02-15T00:00:40.627Z,98221.55
2019-02-15T00:03:07.562Z,98225.41
2019-02-15T00:05:33.391Z,98232.32
2019-02-15T00:07:59.188Z,98227.56
2019-02-15T00:10:25.014Z,98231.39
2019-02-15T00:12:50.827Z,98227.08
2019-02-15T00:15:19.418Z,98229.20
2019-02-15T00:17:49.691Z,98213.33
2019-02-15T00:20:17.707Z,98206.78
2019-02-15T00:22:43.537Z,98208.41
2019-02-15T00:25:09.362Z,98204.58
2019-02-15T00:27:35.155Z,98200.27
2019-02-15T00:30:08.344Z,98201.14
2019-02-15T00:32:34.262Z,98225.13
2019-02-15T00:35:00.256Z,98197.65
2019-02-15T00:37:26.363Z,98194.94
2019-02-15T00:39:52.167Z,98194.76
2019-02-15T00:42:18.261Z,98195.89
2019-02-15T00:44:44.347Z,98194.91
2019-02-15T00:47:15.112Z,98195.36
2019-02-15T00:49:41.521Z,98192.86
2019-02-15T00:52:12.130Z,98193.41
2019-02-15T00:54:40.124Z,98192.95
2019-02-15T00:57:17.078Z,98189.15
2019-02-15T00:59:54.101Z,98149.32
2019-02-15T01:02:21.851Z,98189.89
2019-02-15T01:04:55.624Z,98182.75
2019-02-15T01:07:40.194Z,98185.57
2019-02-15T01:10:14.175Z,98185.44
2019-02-15T01:12:41.892Z,98188.01
2019-02-15T01:15:07.695Z,98188.94
2019-02-15T01:17:33.520Z,98184.29
2019-02-15T01:19:59.428Z,98188.36
2019-02-15T01:22:25.295Z,98191.50
2019-02-15T01:24:51.235Z,98191.61
2019-02-15T01:27:19.236Z,98189.45
2019-02-15T01:29:46.924Z,98185.18
2019-02-15T01:32:29.800Z,98177.84
2019-02-15T01:35:06.133Z,98169.11
2019-02-15T01:37:33.868Z,98170.19
2019-02-15T01:40:10.996Z,98164.06
2019-02-15T01:42:45.226Z,98170.77
2019-02-15T01:45:22.291Z,98172.30
2019-02-15T01:47:48.375Z,98166.83
2019-02-15T01:50:14.192Z,98162.67
2019-02-15T01:52:39.996Z,98161.35
2019-02-15T01:55:06.064Z,98158.31
2019-02-15T01:57:31.906Z,98152.53
2019-02-15T01:59:57.796Z,98144.66
2019-02-15T02:02:25.435Z,98145.89
2019-02-15T02:04:51.239Z,98141.05
2019-02-15T02:07:17.016Z,98146.75
2019-02-15T02:09:42.816Z,98148.08
2019-02-15T02:12:09.064Z,98149.48
2019-02-15T02:14:35.134Z,98146.58
2019-02-15T02:17:01.244Z,98149.70
2019-02-15T02:19:27.067Z,98151.48
2019-02-15T02:21:53.139Z,98149.36
2019-02-15T02:24:18.963Z,98139.08
2019-02-15T02:26:44.786Z,98139.05
2019-02-15T02:29:10.837Z,98134.29
2019-02-15T02:31:36.785Z,98136.22
2019-02-15T02:34:02.733Z,98117.12
2019-02-15T02:36:46.479Z,98116.80
2019-02-15T02:39:12.276Z,98119.50
2019-02-15T02:41:38.376Z,98120.61
2019-02-15T02:44:04.221Z,98114.94
2019-02-15T02:46:30.053Z,98116.20
2019-02-15T02:48:55.838Z,98115.67
2019-02-15T02:51:21.673Z,98116.42
2019-02-15T02:53:47.475Z,98113.17
2019-02-15T02:56:13.500Z,98106.97
2019-02-15T02:58:39.569Z,98109.82
2019-02-15T03:01:05.380Z,98107.56
2019-02-15T03:03:31.178Z,98103.36
2019-02-15T03:05:56.986Z,98108.20
2019-02-15T03:08:23.079Z,98100.95
2019-02-15T03:10:49.167Z,98099.70
2019-02-15T03:13:14.952Z,98095.05
2019-02-15T03:15:40.778Z,98095.24
2019-02-15T03:18:06.837Z,98094.34
2019-02-15T03:20:32.639Z,98097.97
2019-02-15T03:22:58.662Z,98092.72
2019-02-15T03:25:24.464Z,98088.71
2019-02-15T03:27:50.787Z,98091.18
2019-02-15T03:30:16.614Z,98104.98
2019-02-15T03:32:42.430Z,98084.65
2019-02-15T03:35:08.583Z,98082.64
2019-02-15T03:37:36.304Z,98088.46
2019-02-15T03:40:06.358Z,98095.34
2019-02-15T03:42:32.441Z,98091.34
2019-02-15T03:44:58.257Z,98085.69
2019-02-15T03:47:24.892Z,98081.48
2019-02-15T03:49:50.710Z,98079.91
2019-02-15T03:52:16.766Z,98082.17
2019-02-15T03:54:42.586Z,98085.63
2019-02-15T03:57:08.420Z,98083.46
2019-02-15T03:59:34.228Z,98087.16
2019-02-15T04:02:00.132Z,98081.71
2019-02-15T04:04:25.936Z,98083.91
2019-02-15T04:06:51.958Z,98090.84
2019-02-15T04:09:17.795Z,98089.98
2019-02-15T04:11:46.640Z,98094.57
2019-02-15T04:14:12.678Z,98094.98
2019-02-15T04:16:41.243Z,98089.33
2019-02-15T04:19:07.047Z,98107.60
2019-02-15T04:21:35.060Z,98090.27
2019-02-15T04:24:01.211Z,98092.61
2019-02-15T04:26:32.013Z,98094.29
2019-02-15T04:28:57.839Z,98086.58
2019-02-15T04:31:23.640Z,98084.75
2019-02-15T04:33:49.507Z,98090.45
2019-02-15T04:36:15.289Z,98102.25
2019-02-15T04:38:44.098Z,98099.06
2019-02-15T04:41:10.204Z,98119.88
2019-02-15T04:43:39.353Z,98107.26
2019-02-15T04:46:05.122Z,98104.31
2019-02-15T04:48:31.210Z,98104.31
2019-02-15T04:50:57.015Z,98101.36
2019-02-15T04:53:25.214Z,98109.08
2019-02-15T04:55:51.290Z,98109.91
2019-02-15T04:58:20.171Z,98131.72
2019-02-15T05:00:45.991Z,98107.26
2019-02-15T05:03:19.509Z,98104.16
2019-02-15T05:05:44.992Z,98110.55
2019-02-15T05:08:10.794Z,98113.98
2019-02-15T05:10:36.615Z,98110.96
2019-02-15T05:13:02.425Z,98110.21
2019-02-15T05:15:28.218Z,98112.44
2019-02-15T05:17:54.002Z,98112.55
2019-02-15T05:20:22.861Z,98117.34
2019-02-15T05:22:48.693Z,98133.67
2019-02-15T05:25:17.301Z,98118.70
2019-02-15T05:27:43.383Z,98117.89
2019-02-15T05:30:12.216Z,98112.78
2019-02-15T05:32:38.288Z,98108.94
2019-02-15T05:35:07.307Z,98111.92
2019-02-15T05:37:33.416Z,98124.23
2019-02-15T05:40:00.606Z,98115.60
2019-02-15T05:42:26.483Z,98122.38
2019-02-15T05:44:52.340Z,98113.27
2019-02-15T05:47:18.456Z,98118.52
2019-02-15T05:49:44.376Z,98115.60
2019-02-15T05:52:12.970Z,98117.84
2019-02-15T05:54:38.746Z,98123.95
2019-02-15T05:57:04.563Z,98112.48
2019-02-15T05:59:30.372Z,98115.89
2019-02-15T06:01:56.202Z,98117.61
2019-02-15T06:04:25.235Z,98110.78
2019-02-15T06:06:51.046Z,98124.03
2019-02-15T06:09:19.809Z,98120.16
2019-02-15T06:11:45.869Z,98137.23
2019-02-15T06:14:14.634Z,98123.03
2019-02-15T06:16:40.459Z,98136.73
2019-02-15T06:19:09.661Z,98126.86
2019-02-15T06:21:35.502Z,98136.66
2019-02-15T06:24:04.286Z,98129.77
2019-02-15T06:26:30.345Z,98158.83
2019-02-15T06:28:59.217Z,98143.41
2019-02-15T06:31:25.011Z,98137.86
2019-02-15T06:33:52.885Z,98133.17
2019-02-15T06:36:18.670Z,98164.00
2019-02-15T06:38:49.119Z,98150.76
2019-02-15T06:41:14.919Z,98151.66
2019-02-15T06:43:43.587Z,98144.39
2019-02-15T06:46:09.394Z,98152.17
2019-02-15T06:48:36.362Z,98147.08
2019-02-15T06:51:02.445Z,98146.67
2019-02-15T06:53:31.530Z,98149.22
2019-02-15T06:55:57.342Z,98152.19
2019-02-15T06:58:23.417Z,98160.64
2019-02-15T07:01:06.366Z,98159.16
2019-02-15T07:03:35.415Z,98166.13
2019-02-15T07:06:01.273Z,98161.17
2019-02-15T07:08:27.336Z,98164.84
2019-02-15T07:10:53.175Z,98158.51
2019-02-15T07:13:19.199Z,98160.61
2019-02-15T07:15:45.327Z,98165.50
2019-02-15T07:18:11.413Z,98162.73
2019-02-15T07:20:37.502Z,98161.44
2019-02-15T07:23:03.613Z,98152.62
2019-02-15T07:25:29.419Z,98150.66
2019-02-15T07:27:55.260Z,98150.52
2019-02-15T07:30:21.047Z,98151.13
2019-02-15T07:32:46.869Z,98145.10
2019-02-15T07:35:12.975Z,98152.53
2019-02-15T07:37:38.797Z,98155.67
2019-02-15T07:40:06.799Z,98145.52
2019-02-15T07:42:32.590Z,98143.52
2019-02-15T07:44:58.431Z,98136.86
2019-02-15T07:47:24.261Z,98035.88
2019-02-15T07:49:50.091Z,98138.79
2019-02-15T07:52:18.921Z,98135.39
2019-02-15T07:54:44.735Z,98127.02
2019-02-15T07:57:13.298Z,98126.45
2019-02-15T07:59:39.191Z,98141.92
2019-02-15T08:02:08.167Z,98122.28
2019-02-15T08:04:33.974Z,98132.80
2019-02-15T08:07:02.879Z,98126.44
2019-02-15T08:09:28.948Z,98119.95
2019-02-15T08:11:55.044Z,98110.49
2019-02-15T08:14:20.870Z,98111.44
2019-02-15T08:16:46.703Z,98105.90
2019-02-15T08:19:13.592Z,98108.43
2019-02-15T08:21:39.393Z,98116.19
2019-02-15T08:24:08.391Z,98108.88
2019-02-15T08:26:34.207Z,98109.87
2019-02-15T08:29:04.891Z,98105.84
2019-02-15T08:31:30.685Z,98103.44
2019-02-15T08:33:58.370Z,98100.42
2019-02-15T08:36:24.482Z,98091.74
2019-02-15T08:38:53.305Z,98091.18
2019-02-15T08:41:19.392Z,98102.63
2019-02-15T08:43:48.124Z,98090.42
2019-02-15T08:46:13.944Z,98103.59
2019-02-15T08:48:45.943Z,98091.02
2019-02-15T08:51:07.519Z,98089.30
2019-02-15T08:53:33.415Z,98088.59
2019-02-15T08:55:59.245Z,98091.83
2019-02-15T08:58:25.038Z,98091.14
2019-02-15T09:00:55.644Z,98091.05
2019-02-15T09:03:22.064Z,98084.59
2019-02-15T09:05:50.725Z,98088.16
2019-02-15T09:08:16.547Z,98087.27
2019-02-15T09:10:45.391Z,98068.61
2019-02-15T09:13:11.185Z,98090.97
2019-02-15T09:15:40.289Z,98079.05
2019-02-15T09:18:06.090Z,98079.16
2019-02-15T09:20:35.173Z,98077.34
2019-02-15T09:23:00.986Z,98079.87
2019-02-15T09:25:26.760Z,98085.13
2019-02-15T09:28:12.997Z,98081.73
2019-02-15T09:30:39.084Z,98072.91
2019-02-15T09:33:04.964Z,98080.92
2019-02-15T09:35:30.873Z,98076.50
2019-02-15T09:37:56.723Z,98087.63
2019-02-15T09:40:22.519Z,98073.98
2019-02-15T09:42:48.615Z,98069.09
2019-02-15T09:45:14.713Z,98075.41
2019-02-15T09:47:40.932Z,98080.48
2019-02-15T09:50:09.843Z,98076.36
2019-02-15T09:52:36.619Z,98070.52
2019-02-15T09:55:02.675Z,98058.86
2019-02-15T09:57:28.526Z,98066.09
2019-02-15T09:59:54.324Z,98071.41
2019-02-15T10:02:20.113Z,98069.38
2019-02-15T10:04:45.936Z,98070.17
2019-02-15T10:07:11.716Z,98073.70
2019-02-15T10:09:37.804Z,98069.95
2019-02-15T10:12:03.627Z,98066.15
2019-02-15T10:14:29.684Z,98064.55
2019-02-15T10:16:55.761Z,98062.98
2019-02-15T10:19:22.600Z,98069.46
2019-02-15T10:21:48.812Z,98063.31
2019-02-15T10:24:14.935Z,98066.47
2019-02-15T10:26:40.748Z,98057.78
2019-02-15T10:29:09.840Z,98060.92
2019-02-15T10:31:35.666Z,98066.84
2019-02-15T10:34:04.443Z,98070.04
2019-02-15T10:36:30.258Z,98079.39
2019-02-15T10:38:56.146Z,98061.59
2019-02-15T10:41:21.939Z,98066.18
2019-02-15T10:43:48.040Z,98074.29
2019-02-15T10:46:15.358Z,98069.27
2019-02-15T10:48:41.157Z,98062.67
2019-02-15T10:51:09.608Z,98052.97
2019-02-15T10:53:35.448Z,98053.28
2019-02-15T10:56:07.045Z,98050.09
2019-02-15T10:58:32.844Z,98052.92
2019-02-15T11:01:01.621Z,98047.70
2019-02-15T11:03:27.635Z,98034.70
2019-02-15T11:05:56.561Z,98038.55
2019-02-15T11:08:22.638Z,98039.28
2019-02-15T11:10:48.459Z,98025.61
2019-02-15T11:13:14.308Z,98035.09
2019-02-15T11:15:40.390Z,98030.16
2019-02-15T11:18:06.421Z,98024.56
2019-02-15T11:20:32.252Z,98021.94
2019-02-15T11:23:01.088Z,98018.66
2019-02-15T11:25:26.917Z,98019.10
2019-02-15T11:27:54.871Z,98018.91
2019-02-15T11:30:20.863Z,98013.39
2019-02-15T11:32:49.990Z,98012.76
2019-02-15T11:35:15.825Z,98003.40
2019-02-15T11:37:44.889Z,98003.40
2019-02-15T11:40:13.890Z,98007.83
2019-02-15T11:42:39.686Z,98002.30
2019-02-15T11:45:08.388Z,98004.10
2019-02-15T11:47:34.207Z,98004.43
2019-02-15T11:50:00.364Z,98003.47
2019-02-15T11:52:26.268Z,97993.80
2019-02-15T11:54:52.342Z,97996.84
2019-02-15T11:57:18.170Z,97986.78
2019-02-15T11:59:47.282Z,97978.45
2019-02-15T12:02:13.376Z,97973.95
2019-02-15T12:04:42.026Z,97979.17
2019-02-15T12:07:07.863Z,97979.20
2019-02-15T12:09:34.891Z,97972.38
2019-02-15T12:12:00.713Z,97986.03
2019-02-15T12:14:31.087Z,97972.19
2019-02-15T12:17:05.250Z,97962.38
2019-02-15T12:19:24.873Z,97955.80
2019-02-15T12:21:50.676Z,97962.16
2019-02-15T12:24:19.867Z,97951.16
2019-02-15T12:26:45.661Z,97948.75
2019-02-15T12:29:11.707Z,97944.07
2019-02-15T12:31:37.817Z,97947.00
2019-02-15T12:34:03.856Z,97940.15
2019-02-15T12:36:31.244Z,97932.85
2019-02-15T12:38:57.069Z,97936.58
2019-02-15T12:41:25.731Z,97814.41
2019-02-15T12:43:51.573Z,97927.16
2019-02-15T12:46:22.503Z,97924.62
2019-02-15T12:48:48.584Z,97922.86
2019-02-15T12:51:17.584Z,97925.16
2019-02-15T12:53:43.429Z,97930.04
2019-02-15T12:56:11.983Z,97918.88
2019-02-15T12:58:37.832Z,97912.06
2019-02-15T13:01:06.489Z,97908.34
2019-02-15T13:03:32.298Z,97906.61
2019-02-15T13:05:58.116Z,97902.98
2019-02-15T13:08:24.187Z,97904.66
2019-02-15T13:10:50.111Z,97896.82
2019-02-15T13:13:16.244Z,97886.66
2019-02-15T13:15:44.049Z,97899.59
2019-02-15T13:18:13.018Z,97887.53
2019-02-15T13:20:38.856Z,97882.39
2019-02-15T13:23:07.677Z,97882.39
2019-02-15T13:25:36.824Z,97879.76
2019-02-15T13:28:01.252Z,97879.76
2019-02-15T13:30:27.055Z,97875.27
2019-02-15T13:32:55.965Z,97876.58
2019-02-15T13:35:22.833Z,97876.15
2019-02-15T13:37:51.939Z,97865.67
2019-02-15T13:40:17.746Z,97865.67
2019-02-15T13:42:43.553Z,97876.34
2019-02-15T13:45:10.860Z,97882.77
2019-02-15T13:47:36.938Z,97864.48
2019-02-15T13:50:04.963Z,97872.09
2019-02-15T13:52:30.790Z,97861.45
2019-02-15T13:54:56.608Z,97863.88
2019-02-15T13:57:22.489Z,97841.16
2019-02-15T13:59:50.944Z,97858.98
2019-02-15T14:02:16.755Z,97832.82
2019-02-15T14:04:47.220Z,97832.82
2019-02-15T14:07:17.234Z,97861.03
2019-02-15T14:09:43.082Z,97855.03
2019-02-15T14:12:08.894Z,97855.03
2019-02-15T14:14:34.809Z,97858.81
2019-02-15T14:17:00.935Z,97867.38
2019-02-15T14:19:26.756Z,97859.45
2019-02-15T14:21:52.585Z,97853.98
2019-02-15T14:24:18.387Z,97852.27
2019-02-15T14:26:47.088Z,97850.58
2019-02-15T14:29:12.931Z,97846.63
2019-02-15T14:31:41.826Z,97846.63
2019-02-15T14:34:07.900Z,97849.34
2019-02-15T14:36:36.331Z,97849.86
2019-02-15T14:39:04.233Z,97848.09
2019-02-15T14:41:33.091Z,97841.67
2019-02-15T14:43:58.924Z,97855.84
2019-02-15T14:46:27.526Z,97845.63
2019-02-15T14:48:53.609Z,97826.30
2019-02-15T14:51:22.722Z,97840.52
2019-02-15T14:53:48.533Z,97840.52
2019-02-15T14:56:14.360Z,97830.14
2019-02-15T14:58:40.162Z,97841.20
2019-02-15T15:01:05.949Z,97829.32
2019-02-15T15:03:32.289Z,97833.55
2019-02-15T15:05:58.125Z,97821.87
2019-02-15T15:08:27.162Z,97821.87
2019-02-15T15:10:53.012Z,97824.17
2019-02-15T15:13:23.754Z,97824.17
2019-02-15T15:15:49.563Z,97822.13
2019-02-15T15:18:18.635Z,97824.27
2019-02-15T15:20:44.428Z,97817.09
2019-02-15T15:23:13.303Z,97816.67
2019-02-15T15:25:39.096Z,97826.11
2019-02-15T15:28:07.665Z,97817.52
2019-02-15T15:30:33.824Z,97820.14
2019-02-15T15:32:59.631Z,97803.67
2019-02-15T15:35:26.272Z,97802.08
2019-02-15T15:37:52.104Z,97802.08
2019-02-15T15:40:18.214Z,97804.95
2019-02-15T15:42:44.079Z,97801.95
2019-02-15T15:45:12.797Z,97792.52
2019-02-15T15:47:38.819Z,97808.92
2019-02-15T15:50:11.305Z,97793.58
2019-02-15T15:52:37.173Z,97802.84
2019-02-15T15:55:04.052Z,97792.20
2019-02-15T15:57:29.878Z,97798.70
2019-02-15T15:59:59.219Z,97789.46
2019-02-15T16:02:25.284Z,97802.33
2019-02-15T16:04:51.131Z,97791.89
2019-02-15T16:07:16.936Z,97781.03
2019-02-15T16:09:42.773Z,97782.58
2019-02-15T16:12:08.804Z,97782.01
2019-02-15T16:14:34.877Z,97774.08
2019-02-15T16:17:03.739Z,97779.84
2019-02-15T16:19:29.538Z,97785.31
2019-02-15T16:21:58.126Z,97777.82
2019-02-15T16:24:23.906Z,97780.13
2019-02-15T16:26:52.483Z,97778.90
2019-02-15T16:29:18.266Z,97774.39
2019-02-15T16:31:48.590Z,97782.66
2019-02-15T16:34:14.416Z,97788.54
2019-02-15T16:36:43.321Z,97786.53
2019-02-15T16:39:09.092Z,97792.94
2019-02-15T16:41:36.933Z,97778.02
2019-02-15T16:44:02.754Z,97780.36
2019-02-15T16:46:28.552Z,97782.45
2019-02-15T16:48:54.374Z,97777.88
2019-02-15T16:51:20.196Z,97779.03
2019-02-15T16:53:49.333Z,97787.33
2019-02-15T16:56:15.421Z,97793.55
2019-02-15T16:58:43.983Z,97790.13
2019-02-15T17:01:09.807Z,97803.42
2019-02-15T17:03:38.342Z,97790.81
2019-02-15T17:06:04.172Z,97797.13
2019-02-15T17:08:33.019Z,97791.63
2019-02-15T17:10:59.025Z,97792.28
2019-02-15T17:13:27.657Z,97790.77
2019-02-15T17:15:53.721Z,97794.42
2019-02-15T17:18:22.636Z,97802.55
2019-02-15T17:20:48.426Z,97813.97
2019-02-15T17:23:14.236Z,97803.09
2019-02-15T17:25:40.343Z,97808.84
2019-02-15T17:28:11.142Z,97810.96
2019-02-15T17:30:37.029Z,97807.05
2019-02-15T17:33:02.850Z,97808.04
2019-02-15T17:35:28.640Z,97806.69
2019-02-15T17:37:54.447Z,97811.28
2019-02-15T17:40:25.193Z,97804.28
2019-02-15T17:42:51.041Z,97805.73
2019-02-15T17:45:19.615Z,97804.53
2019-02-15T17:47:45.477Z,97802.57
2019-02-15T17:50:14.333Z,97800.53
2019-02-15T17:52:40.162Z,97807.25
2019-02-15T17:55:09.310Z,97802.03
2019-02-15T17:57:35.393Z,97803.36
2019-02-15T18:00:01.570Z,97808.38
2019-02-15T18:02:27.794Z,97804.22
2019-02-15T18:04:53.626Z,97809.47
2019-02-15T18:07:19.414Z,97804.48
2019-02-15T18:09:45.226Z,97809.33
2019-02-15T18:12:14.183Z,97802.66
2019-02-15T18:14:40.022Z,97804.41
2019-02-15T18:17:08.852Z,97808.56
2019-02-15T18:19:34.806Z,97812.17
2019-02-15T18:22:03.138Z,97804.36
2019-02-15T18:24:29.011Z,97808.70
2019-02-15T18:26:57.076Z,97801.88
2019-02-15T18:29:23.148Z,97805.70
2019-02-15T18:31:56.425Z,97796.03
2019-02-15T18:34:22.551Z,97795.70
2019-02-15T18:36:48.673Z,97793.86
2019-02-15T18:39:14.513Z,97794.56
2019-02-15T18:41:40.339Z,97797.69
2019-02-15T18:44:06.221Z,97795.27
2019-02-15T18:46:32.046Z,97788.16
2019-02-15T18:49:00.952Z,97784.98
2019-02-15T18:51:26.771Z,97789.13
2019-02-15T18:53:55.884Z,97774.84
2019-02-15T18:56:21.765Z,97785.48
2019-02-15T18:58:50.438Z,97798.95
2019-02-15T19:01:16.236Z,97776.95
2019-02-15T19:03:44.816Z,97774.89
2019-02-15T19:06:10.609Z,97794.50
2019-02-15T19:08:37.546Z,97781.09
2019-02-15T19:11:03.462Z,97780.58
2019-02-15T19:13:29.567Z,97779.41
2019-02-15T19:15:57.854Z,97777.22
2019-02-15T19:18:23.950Z,97783.13
2019-02-15T19:20:49.747Z,97786.33
2019-02-15T19:23:15.839Z,97780.91
2019-02-15T19:25:44.493Z,97772.50
2019-02-15T19:28:10.306Z,97791.45
2019-02-15T19:30:40.782Z,97770.14
2019-02-15T19:33:06.966Z,97774.19
2019-02-15T19:35:36.295Z,97770.95
2019-02-15T19:38:02.145Z,97789.38
2019-02-15T19:40:28.374Z,97779.41
2019-02-15T19:43:00.705Z,97774.35
2019-02-15T19:45:26.525Z,97770.70
2019-02-15T19:47:52.314Z,97771.28
2019-02-15T19:50:18.133Z,97768.02
2019-02-15T19:52:45.689Z,97764.98
2019-02-15T19:55:11.790Z,97765.52
2019-02-15T19:57:37.623Z,97769.00
2019-02-15T20:00:07.245Z,97765.88
2019-02-15T20:02:33.051Z,97772.38
2019-02-15T20:04:58.858Z,97763.23
2019-02-15T20:07:25.301Z,97764.69
2019-02-15T20:09:51.124Z,97763.00
2019-02-15T20:12:20.226Z,97757.59
2019-02-15T20:14:46.306Z,97764.36
2019-02-15T20:17:15.138Z,97759.08
2019-02-15T20:19:48.222Z,97777.36
2019-02-15T20:22:08.662Z,97764.12
2019-02-15T20:24:34.559Z,97763.72
2019-02-15T20:27:00.356Z,97768.20
2019-02-15T20:29:26.155Z,97765.83
2019-02-15T20:31:52.021Z,97765.95
2019-02-15T20:34:20.595Z,97763.75
2019-02-15T20:36:46.736Z,97762.16
2019-02-15T20:39:15.860Z,97764.37
2019-02-15T20:41:41.670Z,97758.78
2019-02-15T20:44:11.312Z,97759.41
2019-02-15T20:46:37.423Z,97762.13
2019-02-15T20:49:06.303Z,97761.79
2019-02-15T20:51:32.132Z,97772.80
2019-02-15T20:54:01.020Z,97764.56
2019-02-15T20:56:26.822Z,97753.52
2019-02-15T20:58:55.539Z,97758.85
2019-02-15T21:01:21.340Z,97750.83
2019-02-15T21:03:47.149Z,97750.78
2019-02-15T21:06:14.584Z,97747.55
2019-02-15T21:08:40.624Z,97738.07
2019-02-15T21:11:06.413Z,97742.53
2019-02-15T21:13:32.538Z,97738.50
2019-02-15T21:16:01.398Z,97738.33
2019-02-15T21:18:27.196Z,97755.34
2019-02-15T21:20:56.064Z,97740.19
2019-02-15T21:23:21.894Z,97749.97
2019-02-15T21:25:51.072Z,97736.09
2019-02-15T21:28:16.883Z,97732.23
2019-02-15T21:30:45.759Z,97734.27
2019-02-15T21:33:11.577Z,97750.53
2019-02-15T21:35:40.486Z,97730.89
2019-02-15T21:38:06.423Z,97729.08
2019-02-15T21:40:32.240Z,97728.91
2019-02-15T21:42:58.059Z,97689.77
2019-02-15T21:45:23.999Z,97728.86
2019-02-15T21:47:53.305Z,97725.80
2019-02-15T21:50:19.106Z,97732.23
2019-02-15T21:52:48.060Z,97740.45
2019-02-15T21:55:15.073Z,97740.45
2019-02-15T21:57:40.890Z,97737.13
2019-02-15T22:00:21.298Z,97733.02
2019-02-15T22:02:47.123Z,97733.38
2019-02-15T22:05:13.701Z,97731.33
2019-02-15T22:07:39.526Z,97726.69
2019-02-15T22:10:07.929Z,97724.94
2019-02-15T22:12:34.072Z,97726.23
2019-02-15T22:14:59.867Z,97723.64
2019-02-15T22:17:25.975Z,97725.02
2019-02-15T22:19:52.024Z,97730.55
2019-02-15T22:22:17.834Z,97730.63
2019-02-15T22:24:43.653Z,97728.11
2019-02-15T22:27:09.744Z,97736.52
2019-02-15T22:29:35.562Z,97725.84
2019-02-15T22:32:01.375Z,97721.23
2019-02-15T22:34:27.181Z,97723.14
2019-02-15T22:36:53.005Z,97724.77
2019-02-15T22:39:20.507Z,97727.10
2019-02-15T22:41:46.324Z,97718.04
2019-02-15T22:44:15.311Z,97725.56
2019-02-15T22:46:41.095Z,97718.97
2019-02-15T22:49:43.107Z,97723.86
2019-02-15T22:52:01.319Z,97715.22
2019-02-15T22:54:27.125Z,97728.13
2019-02-15T22:56:53.220Z,97715.43
2019-02-15T22:59:19.295Z,97709.92
2019-02-15T23:01:45.379Z,97708.17
2019-02-15T23:04:11.462Z,97710.09
2019-02-15T23:06:37.356Z,97706.81
2019-02-15T23:09:05.046Z,97703.03
2019-02-15T23:11:31.318Z,97700.64
2019-02-15T23:13:57.414Z,97708.14
2019-02-15T23:16:23.503Z,97707.67
2019-02-15T23:18:49.415Z,97710.09
2019-02-15T23:21:15.251Z,97707.05
2019-02-15T23:23:41.348Z,97708.44
2019-02-15T23:26:07.165Z,97706.61
2019-02-15T23:28:32.988Z,97709.43
2019-02-15T23:30:59.105Z,97706.52
2019-02-15T23:33:24.907Z,97706.52
2019-02-15T23:35:51.018Z,97710.31
2019-02-15T23:38:16.837Z,97713.00
2019-02-15T23:40:42.939Z,97706.84
2019-02-15T23:43:09.028Z,97699.05
2019-02-15T23:45:34.875Z,97703.59
2019-02-15T23:48:00.973Z,97708.96
2019-02-15T23:50:26.764Z,97709.15
2019-02-15T23:52:52.822Z,97707.09
2019-02-15T23:55:18.895Z,97708.94
2019-02-15T23:57:48.181Z,97701.38
